Time;durP1;ratioP1;P1;durP2;ratioP2;P2;SDS_P1;SDS_P2;PMS_P1;PMS_P2;Temp;Humidity;BMP_temperature;BMP_pressure;BME280_temperature;BME280_humidity;BME280_pressure;Samples;Min_cycle;Max_cycle;Signal;HPM_P1;HPM_P2
2022/05/28 00:01:14;;;;;;;0.00;0.00;;;;;;;;;;5037020;28;95950;-72
2022/05/28 00:03:42;;;;;;;0.00;0.00;;;;;;;;;;5038735;28;92317;-74
2022/05/28 00:06:19;;;;;;;0.00;0.00;;;;;;;;;;5038620;28;92783;-73
2022/05/28 00:08:45;;;;;;;0.00;0.00;;;;;;;;;;5038189;28;93720;-73
2022/05/28 00:11:19;;;;;;;0.00;0.00;;;;;;;;;;5038745;28;92397;-74
2022/05/28 00:13:46;;;;;;;0.00;0.00;;;;;;;;;;5041670;28;93523;-73
2022/05/28 00:16:13;;;;;;;0.00;0.00;;;;;;;;;;5037473;27;92251;-73
2022/05/28 00:18:41;;;;;;;0.00;0.00;;;;;;;;;;5039225;28;92994;-75
2022/05/28 00:21:08;;;;;;;0.00;0.00;;;;;;;;;;5037744;28;93696;-72
2022/05/28 00:23:35;;;;;;;0.00;0.00;;;;;;;;;;5020836;28;92197;-72
2022/05/28 00:26:02;;;;;;;0.00;0.00;;;;;;;;;;5036821;28;94731;-72
2022/05/28 00:28:29;;;;;;;0.00;0.00;;;;;;;;;;5038158;28;93555;-72
2022/05/28 00:30:55;;;;;;;0.00;0.00;;;;;;;;;;5038266;28;92157;-74
2022/05/28 00:33:23;;;;;;;0.00;0.00;;;;;;;;;;5037900;28;93333;-74
2022/05/28 00:35:49;;;;;;;0.00;0.00;;;;;;;;;;5041091;28;94188;-73
2022/05/28 00:38:16;;;;;;;0.00;0.00;;;;;;;;;;5038143;28;93349;-73
2022/05/28 00:40:47;;;;;;;0.00;0.00;;;;;;;;;;5037749;28;94523;-73
2022/05/28 00:43:14;;;;;;;0.00;0.00;;;;;;;;;;5038637;28;91574;-73
2022/05/28 00:45:41;;;;;;;0.00;0.00;;;;;;;;;;5038093;28;92567;-74
2022/05/28 00:48:09;;;;;;;0.00;0.00;;;;;;;;;;5037461;28;93905;-73
2022/05/28 00:50:36;;;;;;;0.00;0.00;;;;;;;;;;5036525;28;94694;-73
2022/05/28 00:53:03;;;;;;;0.00;0.00;;;;;;;;;;5037660;28;96265;-74
2022/05/28 00:55:33;;;;;;;1.27;1.17;;;;;;;;;;5037652;28;93323;-73
2022/05/28 00:58:02;;;;;;;0.10;0.10;;;;;;;;;;5040880;28;92314;-74
2022/05/28 01:00:29;;;;;;;0.00;0.00;;;;;;;;;;5019445;28;96725;-73
2022/05/28 01:02:55;;;;;;;0.00;0.00;;;;;;;;;;5020224;28;92248;-74
2022/05/28 01:05:30;;;;;;;0.00;0.00;;;;;;;;;;5037919;28;92738;-73
2022/05/28 01:08:05;;;;;;;0.00;0.00;;;;;;;;;;5027012;27;94037;-73
2022/05/28 01:10:48;;;;;;;0.00;0.00;;;;;;;;;;5037663;28;92655;-74
2022/05/28 01:13:18;;;;;;;0.00;0.00;;;;;;;;;;5036814;28;93216;-73
2022/05/28 01:15:48;;;;;;;0.00;0.00;;;;;;;;;;5033616;28;96037;-74
2022/05/28 01:18:20;;;;;;;0.00;0.00;;;;;;;;;;5034928;27;92495;-73
2022/05/28 01:20:51;;;;;;;0.00;0.00;;;;;;;;;;5040487;28;93294;-73
2022/05/28 01:23:26;;;;;;;0.00;0.00;;;;;;;;;;5037561;28;92373;-73
2022/05/28 01:26:14;;;;;;;0.00;0.00;;;;;;;;;;5036999;28;92925;-73
2022/05/28 01:28:44;;;;;;;0.00;0.00;;;;;;;;;;5034020;27;93008;-73
2022/05/28 01:31:11;;;;;;;0.00;0.00;;;;;;;;;;5033413;28;92434;-73
2022/05/28 01:33:41;;;;;;;0.00;0.00;;;;;;;;;;5035994;27;93479;-73
2022/05/28 01:36:09;;;;;;;0.00;0.00;;;;;;;;;;5037176;27;93355;-73
2022/05/28 01:38:37;;;;;;;0.00;0.00;;;;;;;;;;5036978;27;92371;-72
2022/05/28 01:41:06;;;;;;;0.00;0.00;;;;;;;;;;5038741;28;94641;-72
2022/05/28 01:43:40;;;;;;;0.00;0.00;;;;;;;;;;5037275;28;92458;-72
2022/05/28 01:46:07;;;;;;;0.00;0.00;;;;;;;;;;5036522;27;93250;-73
2022/05/28 01:48:35;;;;;;;0.00;0.00;;;;;;;;;;5036991;27;93576;-74
2022/05/28 01:51:02;;;;;;;0.00;0.00;;;;;;;;;;5037167;28;92344;-72
2022/05/28 01:56:15;;;;;;;0.00;0.00;;;;;;;;;;5036787;28;93104;-72
2022/05/28 01:58:42;;;;;;;0.00;0.00;;;;;;;;;;5037060;27;91863;-72
2022/05/28 02:01:09;;;;;;;0.00;0.00;;;;;;;;;;5037178;28;92670;-72
2022/05/28 02:03:38;;;;;;;0.00;0.00;;;;;;;;;;5038249;27;93400;-72
2022/05/28 02:06:04;;;;;;;0.00;0.00;;;;;;;;;;5034914;28;94634;-72
2022/05/28 02:08:35;;;;;;;0.00;0.00;;;;;;;;;;5052960;27;93665;-72
2022/05/28 02:11:11;;;;;;;0.00;0.00;;;;;;;;;;5057169;27;92216;-72
2022/05/28 02:13:53;;;;;;;0.00;0.00;;;;;;;;;;5057206;27;93395;-72
2022/05/28 02:16:25;;;;;;;1.42;1.35;;;;;;;;;;5056520;27;93964;-72
2022/05/28 02:18:55;;;;;;;0.00;0.00;;;;;;;;;;5056840;27;92447;-72
2022/05/28 02:21:33;;;;;;;0.00;0.00;;;;;;;;;;5057168;27;93081;-73
2022/05/28 02:24:02;;;;;;;0.00;0.00;;;;;;;;;;5057375;27;92957;-72
2022/05/28 02:26:33;;;;;;;0.00;0.00;;;;;;;;;;5060397;27;92424;-72
2022/05/28 02:29:00;;;;;;;0.00;0.00;;;;;;;;;;5056560;27;93107;-72
2022/05/28 02:31:28;;;;;;;0.00;0.00;;;;;;;;;;5055433;27;94940;-72
2022/05/28 02:33:55;;;;;;;0.00;0.00;;;;;;;;;;5056805;27;95500;-72
2022/05/28 02:36:22;;;;;;;0.00;0.00;;;;;;;;;;5056570;27;93540;-72
2022/05/28 02:38:48;;;;;;;0.00;0.00;;;;;;;;;;5056851;27;92390;-72
2022/05/28 02:41:15;;;;;;;0.00;0.00;;;;;;;;;;5060451;27;93457;-72
2022/05/28 02:43:41;;;;;;;0.00;0.00;;;;;;;;;;5059760;27;93479;-72
2022/05/28 02:46:08;;;;;;;0.00;0.00;;;;;;;;;;5060035;27;92320;-73
2022/05/28 02:48:35;;;;;;;0.00;0.00;;;;;;;;;;5063700;27;93211;-72
2022/05/28 02:51:06;;;;;;;0.00;0.00;;;;;;;;;;5060406;27;92213;-72
2022/05/28 02:53:32;;;;;;;0.00;0.00;;;;;;;;;;5060176;27;92727;-72
2022/05/28 02:55:59;;;;;;;0.00;0.00;;;;;;;;;;5058095;27;95048;-72
2022/05/28 02:58:25;;;;;;;0.00;0.00;;;;;;;;;;5042242;27;92313;-72
2022/05/28 03:00:52;;;;;;;0.00;0.00;;;;;;;;;;5060165;27;93563;-72
2022/05/28 03:03:19;;;;;;;0.00;0.00;;;;;;;;;;5059860;27;93939;-72
2022/05/28 03:05:47;;;;;;;0.00;0.00;;;;;;;;;;5060204;27;92274;-72
2022/05/28 03:08:14;;;;;;;0.05;0.05;;;;;;;;;;5059520;27;92608;-71
2022/05/28 03:10:40;;;;;;;0.00;0.00;;;;;;;;;;5059427;27;93108;-73
2022/05/28 03:13:06;;;;;;;0.00;0.00;;;;;;;;;;5060498;27;93054;-72
2022/05/28 03:15:33;;;;;;;0.00;0.00;;;;;;;;;;5059727;27;93422;-71
2022/05/28 03:18:02;;;;;;;0.00;0.00;;;;;;;;;;5059680;27;92316;-73
2022/05/28 03:20:29;;;;;;;0.00;0.00;;;;;;;;;;5058204;27;94746;-72
2022/05/28 03:22:56;;;;;;;0.00;0.00;;;;;;;;;;5059399;27;93651;-72
2022/05/28 03:25:22;;;;;;;0.00;0.00;;;;;;;;;;5059138;27;92506;-73
2022/05/28 03:27:48;;;;;;;0.00;0.00;;;;;;;;;;5059744;27;93395;-72
2022/05/28 03:30:15;;;;;;;0.00;0.00;;;;;;;;;;5059385;27;92718;-73
2022/05/28 03:32:41;;;;;;;0.00;0.00;;;;;;;;;;5062595;27;92292;-73
2022/05/28 03:35:08;;;;;;;0.00;0.00;;;;;;;;;;5058943;27;93548;-72
2022/05/28 03:37:34;;;;;;;0.00;0.00;;;;;;;;;;5059490;27;91596;-74
2022/05/28 03:40:02;;;;;;;0.00;0.00;;;;;;;;;;5041124;27;92696;-73
2022/05/28 03:42:28;;;;;;;0.00;0.00;;;;;;;;;;5041248;27;93595;-73
2022/05/28 03:44:55;;;;;;;0.08;0.08;;;;;;;;;;5057783;27;94752;-73
2022/05/28 03:47:21;;;;;;;0.00;0.00;;;;;;;;;;5059302;27;96131;-73
2022/05/28 03:49:47;;;;;;;0.00;0.00;;;;;;;;;;5059207;27;93509;-73
2022/05/28 03:52:14;;;;;;;0.00;0.00;;;;;;;;;;5062146;27;92409;-73
2022/05/28 03:54:43;;;;;;;0.00;0.00;;;;;;;;;;5058789;27;93440;-73
2022/05/28 03:57:15;;;;;;;0.00;0.00;;;;;;;;;;5059117;27;92333;-73
2022/05/28 03:59:41;;;;;;;;;;;;;;;;;;5059655;27;93313;-72
2022/05/28 04:02:08;;;;;;;0.00;0.00;;;;;;;;;;5058507;27;122791;-73
2022/05/28 04:04:34;;;;;;;0.00;0.00;;;;;;;;;;5058946;27;92201;-72
2022/05/28 04:07:01;;;;;;;0.00;0.00;;;;;;;;;;5058273;27;93691;-73
2022/05/28 04:09:27;;;;;;;0.00;0.00;;;;;;;;;;5039243;27;96204;-73
2022/05/28 04:11:54;;;;;;;0.00;0.00;;;;;;;;;;5058942;27;92281;-73
2022/05/28 04:14:20;;;;;;;0.00;0.00;;;;;;;;;;5061911;27;93497;-73
2022/05/28 04:16:46;;;;;;;0.00;0.00;;;;;;;;;;5058926;27;92394;-72
2022/05/28 04:19:13;;;;;;;0.00;0.00;;;;;;;;;;5058950;27;92840;-73
2022/05/28 04:21:39;;;;;;;0.00;0.00;;;;;;;;;;5058194;27;93671;-73
2022/05/28 04:24:06;;;;;;;0.00;0.00;;;;;;;;;;5058763;27;92242;-73
2022/05/28 04:26:32;;;;;;;0.00;0.00;;;;;;;;;;5059216;27;93749;-72
2022/05/28 04:28:59;;;;;;;0.00;0.00;;;;;;;;;;5058292;27;94881;-73
2022/05/28 04:31:25;;;;;;;0.00;0.00;;;;;;;;;;5058685;27;92300;-73
2022/05/28 04:33:51;;;;;;;0.00;0.00;;;;;;;;;;5056953;27;94742;-72
2022/05/28 04:36:18;;;;;;;0.00;0.00;;;;;;;;;;5061203;27;93419;-73
2022/05/28 04:38:44;;;;;;;0.00;0.00;;;;;;;;;;5058713;27;92487;-73
2022/05/28 04:41:10;;;;;;;0.00;0.00;;;;;;;;;;5058207;27;93795;-73
2022/05/28 04:43:37;;;;;;;0.00;0.00;;;;;;;;;;5040218;27;92461;-73
2022/05/28 04:46:04;;;;;;;0.00;0.00;;;;;;;;;;5058513;27;92929;-73
2022/05/28 04:48:31;;;;;;;0.00;0.00;;;;;;;;;;5057903;27;93545;-73
2022/05/28 04:50:57;;;;;;;0.00;0.00;;;;;;;;;;5058509;27;91893;-73
2022/05/28 04:53:23;;;;;;;0.00;0.00;;;;;;;;;;5058390;27;92739;-73
2022/05/28 04:55:50;;;;;;;0.00;0.00;;;;;;;;;;5058213;27;93671;-73
2022/05/28 04:58:16;;;;;;;0.00;0.00;;;;;;;;;;5059728;27;94759;-73
2022/05/28 05:00:44;;;;;;;0.00;0.00;;;;;;;;;;5057954;27;94038;-73
2022/05/28 05:03:10;;;;;;;0.00;0.00;;;;;;;;;;5057427;27;92279;-73
2022/05/28 05:05:37;;;;;;;0.20;0.20;;;;;;;;;;5057964;27;93398;-74
2022/05/28 05:08:04;;;;;;;0.00;0.00;;;;;;;;;;5057579;27;93765;-73
2022/05/28 05:10:30;;;;;;;0.00;0.00;;;;;;;;;;5055015;27;92369;-73
2022/05/28 05:12:58;;;;;;;0.00;0.00;;;;;;;;;;5058078;27;92841;-73
2022/05/28 05:15:24;;;;;;;0.00;0.00;;;;;;;;;;5058135;27;92408;-73
2022/05/28 05:17:51;;;;;;;0.00;0.00;;;;;;;;;;5057273;27;92402;-73
2022/05/28 05:20:17;;;;;;;0.00;0.00;;;;;;;;;;5060765;27;93255;-73
2022/05/28 05:22:43;;;;;;;0.00;0.00;;;;;;;;;;5056289;27;94621;-73
2022/05/28 05:25:11;;;;;;;0.00;0.00;;;;;;;;;;5057533;27;95858;-73
2022/05/28 05:27:37;;;;;;;0.10;0.10;;;;;;;;;;5057248;27;94407;-73
2022/05/28 05:30:04;;;;;;;0.00;0.00;;;;;;;;;;5057745;27;92315;-74
2022/05/28 05:32:30;;;;;;;0.00;0.00;;;;;;;;;;5057282;27;93434;-74
2022/05/28 05:34:57;;;;;;;0.00;0.00;;;;;;;;;;5057494;27;93201;-73
2022/05/28 05:37:23;;;;;;;0.00;0.00;;;;;;;;;;5057670;27;92464;-74
2022/05/28 05:39:50;;;;;;;0.08;0.08;;;;;;;;;;5060934;27;92669;-74
2022/05/28 05:42:16;;;;;;;0.10;0.10;;;;;;;;;;5057777;27;92415;-74
2022/05/28 05:44:42;;;;;;;0.00;0.00;;;;;;;;;;5057513;27;93136;-74
2022/05/28 05:47:09;;;;;;;0.00;0.00;;;;;;;;;;5055334;27;94801;-74
2022/05/28 05:49:35;;;;;;;0.00;0.00;;;;;;;;;;5057504;27;92300;-74
2022/05/28 05:52:03;;;;;;;0.00;0.00;;;;;;;;;;5057496;27;93277;-74
2022/05/28 05:54:30;;;;;;;0.10;0.10;;;;;;;;;;5057043;27;93690;-74
2022/05/28 05:56:56;;;;;;;0.30;0.30;;;;;;;;;;5057230;27;92248;-74
2022/05/28 05:59:23;;;;;;;0.08;0.08;;;;;;;;;;5056978;27;94324;-74
2022/05/28 06:01:49;;;;;;;0.20;0.20;;;;;;;;;;5059729;27;93909;-77
2022/05/28 06:04:16;;;;;;;0.30;0.30;;;;;;;;;;5057922;27;93313;-73
2022/05/28 06:06:42;;;;;;;0.00;0.00;;;;;;;;;;5056966;27;93763;-74
2022/05/28 06:09:08;;;;;;;0.75;0.75;;;;;;;;;;5057187;27;92475;-74
2022/05/28 06:11:35;;;;;;;0.10;0.10;;;;;;;;;;5037450;27;96710;-74
2022/05/28 06:14:01;;;;;;;0.00;0.00;;;;;;;;;;5056978;27;95013;-74
2022/05/28 06:16:28;;;;;;;0.10;0.10;;;;;;;;;;5060550;27;92341;-73
2022/05/28 06:18:54;;;;;;;0.00;0.00;;;;;;;;;;5060590;27;93436;-73
2022/05/28 06:21:20;;;;;;;0.00;0.00;;;;;;;;;;5060581;27;93657;-73
2022/05/28 06:23:47;;;;;;;0.10;0.10;;;;;;;;;;5063823;27;92330;-74
2022/05/28 06:26:13;;;;;;;0.00;0.00;;;;;;;;;;5042313;27;94124;-74
2022/05/28 06:28:40;;;;;;;0.00;0.00;;;;;;;;;;5061098;27;91425;-74
2022/05/28 06:31:08;;;;;;;0.08;0.08;;;;;;;;;;5059808;27;94503;-74
2022/05/28 06:33:35;;;;;;;0.00;0.00;;;;;;;;;;5060168;27;93634;-73
2022/05/28 06:36:03;;;;;;;0.00;0.00;;;;;;;;;;5058923;27;94741;-74
2022/05/28 06:38:29;;;;;;;0.00;0.00;;;;;;;;;;5060359;27;95163;-77
2022/05/28 06:40:56;;;;;;;0.00;0.00;;;;;;;;;;5060402;27;92872;-75
2022/05/28 06:43:23;;;;;;;0.00;0.00;;;;;;;;;;5060071;27;92399;-74
2022/05/28 06:45:50;;;;;;;0.03;0.03;;;;;;;;;;5062915;27;94398;-74
2022/05/28 06:48:16;;;;;;;0.00;0.00;;;;;;;;;;5060486;27;92527;-74
2022/05/28 06:51:01;;;;;;;0.40;0.40;;;;;;;;;;5060327;27;92419;-74
2022/05/28 06:53:38;;;;;;;0.10;0.10;;;;;;;;;;5060667;27;92964;-73
2022/05/28 06:56:06;;;;;;;0.10;0.10;;;;;;;;;;5059721;27;93379;-74
2022/05/28 06:58:33;;;;;;;0.00;0.00;;;;;;;;;;5060019;27;92926;-72
2022/05/28 07:01:00;;;;;;;0.05;0.05;;;;;;;;;;5058127;27;96008;-71
2022/05/28 07:03:27;;;;;;;2.92;1.40;;;;;;;;;;5059654;27;92490;-70
2022/05/28 07:05:54;;;;;;;0.22;0.22;;;;;;;;;;5059986;27;93662;-69
2022/05/28 07:08:21;;;;;;;0.80;0.80;;;;;;;;;;5062034;27;93772;-70
2022/05/28 07:10:51;;;;;;;0.10;0.10;;;;;;;;;;5059880;27;93367;-70
2022/05/28 07:13:19;;;;;;;0.07;0.07;;;;;;;;;;5059496;27;94361;-70
2022/05/28 07:15:45;;;;;;;0.00;0.00;;;;;;;;;;5059955;27;92245;-69
2022/05/28 07:18:11;;;;;;;0.10;0.10;;;;;;;;;;5060440;27;92848;-70
2022/05/28 07:20:38;;;;;;;0.10;0.10;;;;;;;;;;5059675;27;93543;-69
2022/05/28 07:23:06;;;;;;;0.00;0.00;;;;;;;;;;5059406;27;92368;-70
2022/05/28 07:25:33;;;;;;;0.17;0.17;;;;;;;;;;5057909;27;94659;-70
2022/05/28 07:27:59;;;;;;;0.35;0.35;;;;;;;;;;5059415;27;92453;-69
2022/05/28 07:30:26;;;;;;;0.20;0.20;;;;;;;;;;5062831;27;92392;-69
2022/05/28 07:32:52;;;;;;;0.00;0.00;;;;;;;;;;5059298;27;93617;-69
2022/05/28 07:35:18;;;;;;;0.10;0.10;;;;;;;;;;5059381;27;92332;-69
2022/05/28 07:37:51;;;;;;;0.20;0.20;;;;;;;;;;5059121;27;93229;-69
2022/05/28 07:40:17;;;;;;;0.10;0.10;;;;;;;;;;5059398;27;93157;-70
2022/05/28 07:42:44;;;;;;;1.17;0.63;;;;;;;;;;5059938;27;91664;-74
2022/05/28 07:45:10;;;;;;;0.30;0.30;;;;;;;;;;5059329;27;92157;-70
2022/05/28 07:47:36;;;;;;;0.00;0.00;;;;;;;;;;5059358;27;93892;-72
2022/05/28 07:50:03;;;;;;;0.10;0.10;;;;;;;;;;5060665;27;94733;-70
2022/05/28 07:52:29;;;;;;;0.00;0.00;;;;;;;;;;5058965;27;92926;-70
2022/05/28 07:54:56;;;;;;;0.30;0.30;;;;;;;;;;5059247;27;92359;-69
2022/05/28 07:57:22;;;;;;;0.00;0.00;;;;;;;;;;5041003;27;93399;-72
2022/05/28 07:59:48;;;;;;;0.00;0.00;;;;;;;;;;5059004;27;93778;-71
2022/05/28 08:02:14;;;;;;;0.00;0.00;;;;;;;;;;5056180;27;92715;-71
2022/05/28 08:04:41;;;;;;;0.00;0.00;;;;;;;;;;5058546;27;93242;-70
2022/05/28 08:07:07;;;;;;;0.73;0.73;;;;;;;;;;5058940;27;94256;-72
2022/05/28 08:09:34;;;;;;;0.10;0.10;;;;;;;;;;5058872;27;92664;-70
2022/05/28 08:12:00;;;;;;;0.10;0.10;;;;;;;;;;5061648;27;94982;-70
2022/05/28 08:14:26;;;;;;;0.00;0.00;;;;;;;;;;5054451;27;94945;-71
2022/05/28 08:16:53;;;;;;;0.10;0.10;;;;;;;;;;5058841;27;96055;-74
2022/05/28 08:19:20;;;;;;;0.20;0.20;;;;;;;;;;5058281;27;94005;-74
2022/05/28 08:24:31;;;;;;;0.10;0.10;;;;;;;;;;5059136;27;93074;-75
2022/05/28 08:27:00;;;;;;;0.10;0.10;;;;;;;;;;5058558;27;93489;-74
2022/05/28 08:29:26;;;;;;;0.20;0.20;;;;;;;;;;5058776;27;92297;-77
2022/05/28 08:31:53;;;;;;;0.40;0.40;;;;;;;;;;5040527;27;96885;-73
2022/05/28 08:34:19;;;;;;;0.10;0.10;;;;;;;;;;5061624;27;92966;-75
2022/05/28 08:36:46;;;;;;;0.00;0.00;;;;;;;;;;5057926;27;93474;-76
2022/05/28 08:39:13;;;;;;;0.10;0.10;;;;;;;;;;5039086;27;95390;-74
2022/05/28 08:41:50;;;;;;;0.10;0.10;;;;;;;;;;5058690;27;92329;-76
2022/05/28 08:44:18;;;;;;;0.00;0.00;;;;;;;;;;5058504;27;93450;-76
2022/05/28 08:46:50;;;;;;;0.00;0.00;;;;;;;;;;5057871;27;93679;-76
2022/05/28 08:49:19;;;;;;;0.08;0.08;;;;;;;;;;5058368;27;92298;-74
2022/05/28 08:51:54;;;;;;;0.10;0.10;;;;;;;;;;5040672;27;93594;-76
2022/05/28 08:54:31;;;;;;;0.22;0.22;;;;;;;;;;5057704;27;95118;-75
2022/05/28 08:57:01;;;;;;;0.10;0.10;;;;;;;;;;5061461;27;91420;-75
2022/05/28 08:59:33;;;;;;;0.00;0.00;;;;;;;;;;5058024;27;94129;-75
2022/05/28 09:02:04;;;;;;;0.10;0.10;;;;;;;;;;5058175;27;92357;-76
2022/05/28 09:04:34;;;;;;;0.10;0.10;;;;;;;;;;5056614;27;94763;-76
2022/05/28 09:07:04;;;;;;;3.25;1.88;;;;;;;;;;5057637;27;93348;-76
2022/05/28 09:09:38;;;;;;;0.20;0.20;;;;;;;;;;5057681;27;92282;-77
2022/05/28 09:12:05;;;;;;;0.00;0.00;;;;;;;;;;5057923;27;93308;-78
2022/05/28 09:14:36;;;;;;;0.63;0.63;;;;;;;;;;5058017;27;93628;-77
2022/05/28 09:17:21;;;;;;;1.03;1.03;;;;;;;;;;5057585;27;92357;-75
2022/05/28 09:19:48;;;;;;;0.00;0.00;;;;;;;;;;5060361;27;92558;-75
2022/05/28 09:22:15;;;;;;;0.10;0.10;;;;;;;;;;5058324;27;91526;-75
2022/05/28 09:24:42;;;;;;;0.10;0.10;;;;;;;;;;5057876;27;92255;-76
2022/05/28 09:27:18;;;;;;;0.00;0.00;;;;;;;;;;5057599;27;92931;-73
2022/05/28 09:30:05;;;;;;;0.10;0.10;;;;;;;;;;5055971;27;94693;-77
2022/05/28 09:32:37;;;;;;;0.00;0.00;;;;;;;;;;5056967;27;96156;-79
2022/05/28 09:35:15;;;;;;;0.10;0.10;;;;;;;;;;5057478;27;93470;-77
2022/05/28 09:38:00;;;;;;;0.10;0.10;;;;;;;;;;5057720;27;92220;-80
2022/05/28 09:40:32;;;;;;;0.10;0.10;;;;;;;;;;5057515;27;93510;-73
2022/05/28 09:43:03;;;;;;;0.10;0.10;;;;;;;;;;5060154;27;93058;-74
2022/05/28 09:45:35;;;;;;;0.00;0.00;;;;;;;;;;5057539;27;93219;-75
2022/05/28 09:48:02;;;;;;;0.00;0.00;;;;;;;;;;5057875;27;93268;-77
2022/05/28 09:50:40;;;;;;;0.00;0.00;;;;;;;;;;5057858;27;92333;-79
2022/05/28 09:55:58;;;;;;;1.38;0.35;;;;;;;;;;5055453;27;96412;-75
2022/05/28 09:58:27;;;;;;;0.00;0.00;;;;;;;;;;5057332;27;92408;-76
2022/05/28 10:01:03;;;;;;;0.10;0.10;;;;;;;;;;5057228;27;93392;-76
2022/05/28 10:06:17;;;;;;;0.00;0.00;;;;;;;;;;5057335;27;93489;-78
2022/05/28 10:08:44;;;;;;;0.10;0.10;;;;;;;;;;5056873;27;93388;-78
2022/05/28 10:11:15;;;;;;;2.53;0.35;;;;;;;;;;5039587;27;92323;-75
2022/05/28 10:13:46;;;;;;;0.00;0.00;;;;;;;;;;5057216;27;93981;-75
2022/05/28 10:16:15;;;;;;;0.00;0.00;;;;;;;;;;5056436;27;93591;-77
2022/05/28 10:19:02;;;;;;;0.00;0.00;;;;;;;;;;5056867;27;92589;-77
2022/05/28 10:21:37;;;;;;;0.10;0.10;;;;;;;;;;5037509;27;94844;-75
2022/05/28 10:24:05;;;;;;;0.00;0.00;;;;;;;;;;5056756;27;94003;-77
2022/05/28 10:26:33;;;;;;;0.20;0.20;;;;;;;;;;5059991;27;92385;-77
2022/05/28 10:29:18;;;;;;;1.10;1.10;;;;;;;;;;5056608;27;93668;-78
2022/05/28 10:31:46;;;;;;;0.00;0.00;;;;;;;;;;5039145;27;92392;-79
2022/05/28 10:34:39;;;;;;;0.10;0.10;;;;;;;;;;5056771;27;93813;-78
2022/05/28 10:37:16;;;;;;;0.10;0.10;;;;;;;;;;5033931;27;93287;-79
2022/05/28 10:39:44;;;;;;;0.20;0.20;;;;;;;;;;5057286;27;91688;-74
2022/05/28 10:42:12;;;;;;;0.10;0.10;;;;;;;;;;5056945;27;92385;-74
2022/05/28 10:44:39;;;;;;;0.00;0.00;;;;;;;;;;5056344;27;95545;-75
2022/05/28 10:47:24;;;;;;;0.20;0.20;;;;;;;;;;5055134;27;94982;-74
2022/05/28 10:49:51;;;;;;;1.58;1.48;;;;;;;;;;5059372;27;95857;-74
2022/05/28 10:52:44;;;;;;;0.10;0.10;;;;;;;;;;5056756;27;92358;-75
2022/05/28 10:55:13;;;;;;;0.00;0.00;;;;;;;;;;5051321;27;93486;-75
2022/05/28 10:57:40;;;;;;;0.10;0.10;;;;;;;;;;5056280;27;93373;-74
2022/05/28 11:00:11;;;;;;;0.10;0.10;;;;;;;;;;5035616;27;93036;-75
2022/05/28 11:02:56;;;;;;;0.10;0.10;;;;;;;;;;5039769;28;93129;-75
2022/05/28 11:05:41;;;;;;;0.10;0.10;;;;;;;;;;5039871;28;93329;-75
2022/05/28 11:08:07;;;;;;;0.00;0.00;;;;;;;;;;5039020;28;92333;-74
2022/05/28 11:10:52;;;;;;;0.35;0.35;;;;;;;;;;5021225;28;94954;-75
2022/05/28 11:13:28;;;;;;;0.10;0.10;;;;;;;;;;5041015;28;94939;-74
2022/05/28 11:16:13;;;;;;;0.05;0.05;;;;;;;;;;5039464;28;95271;-75
2022/05/28 11:18:52;;;;;;;0.00;0.00;;;;;;;;;;5039201;28;94034;-75
2022/05/28 11:21:18;;;;;;;0.10;0.10;;;;;;;;;;5039218;28;92441;-73
2022/05/28 11:24:05;;;;;;;0.10;0.10;;;;;;;;;;5039579;28;93358;-75
2022/05/28 11:26:34;;;;;;;0.63;0.63;;;;;;;;;;5010560;28;96129;-74
2022/05/28 11:29:13;;;;;;;0.47;0.47;;;;;;;;;;5039108;28;92205;-75
2022/05/28 11:32:11;;;;;;;0.10;0.10;;;;;;;;;;5022082;28;93344;-75
2022/05/28 11:34:53;;;;;;;0.10;0.10;;;;;;;;;;4987865;28;93791;-75
2022/05/28 11:37:37;;;;;;;0.10;0.10;;;;;;;;;;5024161;28;92266;-75
2022/05/28 11:40:35;;;;;;;0.20;0.20;;;;;;;;;;5037177;28;95718;-74
2022/05/28 11:43:05;;;;;;;0.10;0.10;;;;;;;;;;5017214;28;92446;-74
2022/05/28 11:45:39;;;;;;;0.00;0.00;;;;;;;;;;5038920;28;94005;-74
2022/05/28 11:48:24;;;;;;;0.20;0.20;;;;;;;;;;5038330;28;95075;-75
2022/05/28 11:53:52;;;;;;;0.10;0.10;;;;;;;;;;5038959;28;93835;-75
2022/05/28 11:56:21;;;;;;;0.22;0.22;;;;;;;;;;5038172;28;94367;-76
2022/05/28 11:58:56;;;;;;;0.10;0.10;;;;;;;;;;5039363;28;91496;-75
2022/05/28 12:01:24;;;;;;;0.13;0.13;;;;;;;;;;5041943;28;92288;-75
2022/05/28 12:03:52;;;;;;;0.13;0.10;;;;;;;;;;5038929;28;92271;-75
2022/05/28 12:06:27;;;;;;;0.05;0.05;;;;;;;;;;5037127;28;94829;-75
2022/05/28 12:09:05;;;;;;;0.00;0.00;;;;;;;;;;5039520;27;93776;-74
2022/05/28 12:11:32;;;;;;;0.00;0.00;;;;;;;;;;5037116;27;92320;-74
2022/05/28 12:14:01;;;;;;;0.20;0.20;;;;;;;;;;5038021;27;92893;-74
2022/05/28 12:16:31;;;;;;;0.00;0.00;;;;;;;;;;5040815;27;94160;-73
2022/05/28 12:19:00;;;;;;;0.10;0.10;;;;;;;;;;5041522;27;92280;-74
2022/05/28 12:21:27;;;;;;;0.15;0.15;;;;;;;;;;5040279;27;95223;-74
2022/05/28 12:24:23;;;;;;;0.00;0.00;;;;;;;;;;5038359;27;91533;-75
2022/05/28 12:29:33;;;;;;;0.00;0.00;;;;;;;;;;5037544;27;93679;-70
2022/05/28 12:32:14;;;;;;;0.10;0.10;;;;;;;;;;5035845;27;95365;-74
2022/05/28 12:34:58;;;;;;;0.00;0.00;;;;;;;;;;5037122;27;94910;-73
2022/05/28 12:37:31;;;;;;;0.30;0.30;;;;;;;;;;5037255;27;94433;-74
2022/05/28 12:40:16;;;;;;;0.10;0.10;;;;;;;;;;5037688;27;92205;-74
2022/05/28 12:42:42;;;;;;;0.20;0.20;;;;;;;;;;5037690;27;93583;-74
2022/05/28 12:45:13;;;;;;;0.52;0.40;;;;;;;;;;5040920;27;93569;-75
2022/05/28 12:47:40;;;;;;;0.00;0.00;;;;;;;;;;5019672;27;93823;-74
2022/05/28 12:50:06;;;;;;;0.45;0.45;;;;;;;;;;5037685;27;92322;-70
2022/05/28 12:52:44;;;;;;;0.00;0.00;;;;;;;;;;5037302;27;92346;-74
2022/05/28 12:55:19;;;;;;;0.00;0.00;;;;;;;;;;5037765;27;94380;-74
2022/05/28 12:57:57;;;;;;;0.25;0.25;;;;;;;;;;5017784;28;95965;-74
2022/05/28 13:00:28;;;;;;;0.32;0.32;;;;;;;;;;5037085;27;92373;-73
2022/05/28 13:02:55;;;;;;;0.10;0.10;;;;;;;;;;5018969;27;95746;-74
2022/05/28 13:05:38;;;;;;;0.00;0.00;;;;;;;;;;5020191;27;93391;-74
2022/05/28 13:08:08;;;;;;;0.20;0.20;;;;;;;;;;5039942;27;92810;-73
2022/05/28 13:10:34;;;;;;;0.00;0.00;;;;;;;;;;5036597;27;93161;-74
2022/05/28 13:13:31;;;;;;;0.10;0.10;;;;;;;;;;5036942;27;93303;-74
2022/05/28 13:16:09;;;;;;;0.00;0.00;;;;;;;;;;5021348;28;94234;-73
2022/05/28 13:18:35;;;;;;;0.00;0.00;;;;;;;;;;5036622;27;93603;-73
2022/05/28 13:21:17;;;;;;;0.03;0.03;;;;;;;;;;5036559;27;92371;-73
2022/05/28 13:23:49;;;;;;;0.00;0.00;;;;;;;;;;5035148;27;94752;-74
2022/05/28 13:26:23;;;;;;;0.00;0.00;;;;;;;;;;5038405;27;94048;-74
2022/05/28 13:29:05;;;;;;;0.70;0.70;;;;;;;;;;5036940;27;92172;-74
2022/05/28 13:31:35;;;;;;;0.00;0.00;;;;;;;;;;5039396;27;94389;-75
2022/05/28 13:34:03;;;;;;;0.10;0.10;;;;;;;;;;5037104;27;92383;-74
2022/05/28 13:36:31;;;;;;;0.00;0.00;;;;;;;;;;5037993;27;94334;-73
2022/05/28 13:39:00;;;;;;;0.00;0.00;;;;;;;;;;5036679;27;93510;-73
2022/05/28 13:41:29;;;;;;;0.00;0.00;;;;;;;;;;5037154;27;92345;-74
2022/05/28 13:43:58;;;;;;;0.10;0.10;;;;;;;;;;5036601;27;92705;-73
2022/05/28 13:46:24;;;;;;;0.30;0.30;;;;;;;;;;5018867;27;93378;-72
2022/05/28 13:48:53;;;;;;;0.13;0.13;;;;;;;;;;5035005;27;94724;-74
2022/05/28 13:51:20;;;;;;;5.28;0.30;;;;;;;;;;5036615;27;95860;-73
2022/05/28 13:53:50;;;;;;;0.05;0.05;;;;;;;;;;5039619;27;94117;-73
2022/05/28 13:56:25;;;;;;;0.00;0.00;;;;;;;;;;5036258;27;92949;-73
2022/05/28 13:58:52;;;;;;;0.20;0.20;;;;;;;;;;5036500;27;93865;-72
2022/05/28 14:01:22;;;;;;;0.00;0.00;;;;;;;;;;5039775;27;92333;-73
2022/05/28 14:03:49;;;;;;;0.80;0.80;;;;;;;;;;5019076;27;92802;-72
2022/05/28 14:06:17;;;;;;;0.00;0.00;;;;;;;;;;5036384;27;92437;-73
2022/05/28 14:08:46;;;;;;;0.20;0.20;;;;;;;;;;5036073;27;92398;-72
2022/05/28 14:11:14;;;;;;;0.30;0.30;;;;;;;;;;5036296;27;92523;-75
2022/05/28 14:13:45;;;;;;;0.00;0.00;;;;;;;;;;5034607;27;95512;-70
2022/05/28 14:16:18;;;;;;;0.00;0.00;;;;;;;;;;5038952;27;93005;-74
2022/05/28 14:18:45;;;;;;;0.10;0.10;;;;;;;;;;5018303;27;95092;-74
2022/05/28 14:21:12;;;;;;;0.08;0.08;;;;;;;;;;5036301;27;92959;-73
2022/05/28 14:23:42;;;;;;;0.00;0.00;;;;;;;;;;5036238;27;93285;-73
2022/05/28 14:26:16;;;;;;;0.10;0.10;;;;;;;;;;5036619;27;93140;-74
2022/05/28 14:28:45;;;;;;;0.10;0.10;;;;;;;;;;5035594;27;92477;-74
2022/05/28 14:31:12;;;;;;;0.00;0.00;;;;;;;;;;5036320;27;93411;-74
2022/05/28 14:33:40;;;;;;;0.13;0.13;;;;;;;;;;5035641;27;93660;-74
2022/05/28 14:36:26;;;;;;;0.00;0.00;;;;;;;;;;5040854;27;93405;-73
2022/05/28 14:38:52;;;;;;;0.00;0.00;;;;;;;;;;5037538;27;96378;-74
2022/05/28 14:41:18;;;;;;;0.30;0.30;;;;;;;;;;5038890;27;92361;-74
2022/05/28 14:43:52;;;;;;;2.15;1.95;;;;;;;;;;5039526;27;93273;-74
2022/05/28 14:46:26;;;;;;;0.00;0.00;;;;;;;;;;5040366;27;93673;-73
2022/05/28 14:49:05;;;;;;;0.00;0.00;;;;;;;;;;5039502;27;92618;-73
2022/05/28 14:51:35;;;;;;;0.00;0.00;;;;;;;;;;5040235;27;93624;-74
2022/05/28 14:54:02;;;;;;;0.82;0.82;;;;;;;;;;5039033;27;93369;-73
2022/05/28 14:56:33;;;;;;;0.00;0.00;;;;;;;;;;5039917;27;91586;-73
2022/05/28 14:59:00;;;;;;;0.00;0.00;;;;;;;;;;5041990;27;93936;-74
2022/05/28 15:01:34;;;;;;;0.00;0.00;;;;;;;;;;5021681;27;92458;-73
2022/05/28 15:04:11;;;;;;;0.85;0.85;;;;;;;;;;5037224;27;95621;-75
2022/05/28 15:06:55;;;;;;;0.00;0.00;;;;;;;;;;5038882;27;94532;-74
2022/05/28 15:09:24;;;;;;;0.00;0.00;;;;;;;;;;5039335;27;92287;-74
2022/05/28 15:12:00;;;;;;;0.00;0.00;;;;;;;;;;5039026;27;93263;-74
2022/05/28 15:14:27;;;;;;;0.00;0.00;;;;;;;;;;5041101;27;93580;-74
2022/05/28 15:16:55;;;;;;;0.22;0.22;;;;;;;;;;5038724;27;92379;-73